Time;durP1;ratioP1;P1;durP2;ratioP2;P2;SDS_P1;SDS_P2;PMS_P1;PMS_P2;Temp;Humidity;BMP_temperature;BMP_pressure;BME280_temperature;BME280_humidity;BME280_pressure;Samples;Min_cycle;Max_cycle;Signal;HPM_P1;HPM_P2
2022/04/14 00:04:06;;;;;;;;;;;;;;;10.47;65.30273;102018.9;;;;-79
2022/04/14 00:08:18;;;;;;;6.6;3.2;;;;;;;;;;;;;-82
2022/04/14 00:09:06;;;;;;;;;;;;;;;10.43;65.38574;102013.9;;;;-80
2022/04/14 00:14:06;;;;;;;;;;;;;;;10.4;65.18066;102017.3;;;;-80
2022/04/14 00:19:08;;;;;;;;;;;;;;;10.35;65.09766;102020.5;;;;-78
2022/04/14 00:24:09;;;;;;;;;;;;;;;10.32;64.84668;102019.4;;;;-80
2022/04/14 00:29:07;;;;;;;;;;;;;;;10.26;64.77148;102023.4;;;;-80
2022/04/14 00:34:05;;;;;;;;;;;;;;;10.2;65.02832;102021;;;;-79
2022/04/14 00:38:17;;;;;;;6.3;3.2;;;;;;;;;;;;;-80
2022/04/14 00:39:05;;;;;;;;;;;;;;;10.14;64.88574;102021.4;;;;-80
2022/04/14 00:44:06;;;;;;;;;;;;;;;10.08;64.86719;102025.7;;;;-78
2022/04/14 00:49:06;;;;;;;;;;;;;;;10.04;64.87109;102030.4;;;;-78
2022/04/14 00:54:06;;;;;;;;;;;;;;;9.98;64.92969;102034.3;;;;-79
2022/04/14 00:59:05;;;;;;;;;;;;;;;9.94;65.11328;102037.6;;;;-79
2022/04/14 01:04:08;;;;;;;;;;;;;;;9.89;65.09375;102046.7;;;;-79
2022/04/14 01:08:20;;;;;;;5.5;3.3;;;;;;;;;;;;;-80
2022/04/14 01:09:20;;;;;;;;;;;;;;;9.83;65.11719;102046.4;;;;-79
2022/04/14 01:14:05;;;;;;;;;;;;;;;9.79;65.15625;102040.5;;;;-79
2022/04/14 01:19:06;;;;;;;;;;;;;;;9.73;65.09277;102045;;;;-78
2022/04/14 01:24:07;;;;;;;;;;;;;;;9.68;65.35059;102048.5;;;;-79
2022/04/14 01:29:06;;;;;;;;;;;;;;;9.65;65.25781;102045.4;;;;-79
2022/04/14 01:34:06;;;;;;;;;;;;;;;9.63;65.67676;102057;;;;-79
2022/04/14 01:38:18;;;;;;;8.2;3.6;;;;;;;;;;;;;-79
2022/04/14 01:39:05;;;;;;;;;;;;;;;9.62;65.89551;102050.4;;;;-79
2022/04/14 01:44:05;;;;;;;;;;;;;;;9.58;66.05762;102056.2;;;;-80
2022/04/14 01:49:08;;;;;;;;;;;;;;;9.56;65.79883;102059;;;;-81
2022/04/14 01:54:06;;;;;;;;;;;;;;;9.52;65.69336;102052.1;;;;-79
2022/04/14 01:59:06;;;;;;;;;;;;;;;9.47;65.56445;102059.9;;;;-79
2022/04/14 02:04:07;;;;;;;;;;;;;;;9.41;65.50879;102056.6;;;;-78
2022/04/14 02:08:21;;;;;;;7.4;4;;;;;;;;;;;;;-79
2022/04/14 02:09:06;;;;;;;;;;;;;;;9.33;65.76465;102054.3;;;;-80
2022/04/14 02:14:06;;;;;;;;;;;;;;;9.28;65.7334;102055.6;;;;-78
2022/04/14 02:19:06;;;;;;;;;;;;;;;9.24;65.54004;102063.2;;;;-80
2022/04/14 02:24:05;;;;;;;;;;;;;;;9.17;65.61719;102069.6;;;;-79
2022/04/14 02:29:08;;;;;;;;;;;;;;;9.12;65.64453;102073.7;;;;-79
2022/04/14 02:34:08;;;;;;;;;;;;;;;9.08;65.60547;102072.7;;;;-79
2022/04/14 02:38:20;;;;;;;8.8;4.6;;;;;;;;;;;;;-79
2022/04/14 02:39:05;;;;;;;;;;;;;;;9.03;65.6084;102068.2;;;;-80
2022/04/14 02:44:06;;;;;;;;;;;;;;;8.95;65.5752;102067.3;;;;-79
2022/04/14 02:49:07;;;;;;;;;;;;;;;8.91;65.64551;102064.5;;;;-79
2022/04/14 02:54:06;;;;;;;;;;;;;;;8.85;65.625;102064.4;;;;-77
2022/04/14 02:59:06;;;;;;;;;;;;;;;8.79;65.6709;102063;;;;-78
2022/04/14 03:04:05;;;;;;;;;;;;;;;8.74;65.58594;102060.8;;;;-78
2022/04/14 03:08:22;;;;;;;10.6;5.2;;;;;;;;;;;;;-78
2022/04/14 03:09:06;;;;;;;;;;;;;;;8.66;65.67383;102061.3;;;;-80
2022/04/14 03:14:09;;;;;;;;;;;;;;;8.6;65.79785;102063.4;;;;-80
2022/04/14 03:19:06;;;;;;;;;;;;;;;8.56;65.89063;102059.7;;;;-78
2022/04/14 03:24:06;;;;;;;;;;;;;;;8.5;65.9707;102059.4;;;;-80
2022/04/14 03:29:08;;;;;;;;;;;;;;;8.46;66.12988;102061.1;;;;-77
2022/04/14 03:34:07;;;;;;;;;;;;;;;8.43;66.14746;102057.5;;;;-80
2022/04/14 03:38:22;;;;;;;10.7;5.2;;;;;;;;;;;;;-79
2022/04/14 03:39:05;;;;;;;;;;;;;;;8.39;65.93066;102063.4;;;;-81
2022/04/14 03:44:06;;;;;;;;;;;;;;;8.36;66.08301;102064.5;;;;-78
2022/04/14 03:49:06;;;;;;;;;;;;;;;8.31;65.94238;102063.9;;;;-80
2022/04/14 03:54:05;;;;;;;;;;;;;;;8.27;65.96777;102066.9;;;;-79
2022/04/14 03:59:05;;;;;;;;;;;;;;;8.25;66.04102;102067.9;;;;-80
2022/04/14 04:04:06;;;;;;;;;;;;;;;8.2;66.12305;102071.8;;;;-79
2022/04/14 04:08:22;;;;;;;10.9;5.7;;;;;;;;;;;;;-79
2022/04/14 04:09:05;;;;;;;;;;;;;;;8.15;66.25977;102063;;;;-78
2022/04/14 04:14:05;;;;;;;;;;;;;;;8.1;66.03125;102067.8;;;;-79
2022/04/14 04:19:07;;;;;;;;;;;;;;;8.06;66.24609;102067.5;;;;-80
2022/04/14 04:24:08;;;;;;;;;;;;;;;8.06;66.23633;102067.3;;;;-78
2022/04/14 04:29:07;;;;;;;;;;;;;;;8.06;66.23438;102067.8;;;;-79
2022/04/14 04:34:05;;;;;;;;;;;;;;;8.05;66.41016;102073;;;;-81
2022/04/14 04:38:23;;;;;;;12.4;5.5;;;;;;;;;;;;;-78
2022/04/14 04:39:06;;;;;;;;;;;;;;;8.01;66.15039;102080.6;;;;-79
2022/04/14 04:48:12;;;;;;;;;;;;;;;8.07;66.1582;102090;;;;-80
2022/04/14 04:53:12;;;;;;;;;;;;;;;8.08;66.17285;102095.8;;;;-78
2022/04/14 04:58:12;;;;;;;;;;;;;;;8.1;66.08691;102097.9;;;;-78
2022/04/14 05:03:15;;;;;;;;;;;;;;;8.13;65.91406;102098.3;;;;-80
2022/04/14 05:08:12;;;;;;;;;;;;;;;8.17;65.80957;102095.4;;;;-78
2022/04/14 05:08:24;;;;;;;10.7;5.5;;;;;;;;;;;;;-79
2022/04/14 05:13:12;;;;;;;;;;;;;;;8.21;65.67285;102101.3;;;;-80
2022/04/14 05:18:15;;;;;;;;;;;;;;;8.23;65.59766;102108.7;;;;-80
2022/04/14 05:23:14;;;;;;;;;;;;;;;8.28;65.57324;102115.4;;;;-81
2022/04/14 05:28:14;;;;;;;;;;;;;;;8.36;65.75;102120.2;;;;-79
2022/04/14 05:33:12;;;;;;;;;;;;;;;8.43;65.7168;102128.9;;;;-78
2022/04/14 05:38:12;;;;;;;;;;;;;;;8.5;65.4502;102132.4;;;;-80
2022/04/14 05:38:24;;;;;;;11.5;5.1;;;;;;;;;;;;;-78
2022/04/14 05:43:12;;;;;;;;;;;;;;;8.61;65.43457;102137.5;;;;-79
2022/04/14 05:48:12;;;;;;;;;;;;;;;8.71;65.47168;102139.2;;;;-80
2022/04/14 05:53:12;;;;;;;;;;;;;;;8.81;65.28711;102152.2;;;;-78
2022/04/14 05:58:12;;;;;;;;;;;;;;;8.9;65.12305;102154.4;;;;-81
2022/04/14 06:03:12;;;;;;;;;;;;;;;8.97;64.97852;102154.5;;;;-78
2022/04/14 06:08:15;;;;;;;;;;;;;;;9.03;64.85547;102163.1;;;;-80
2022/04/14 06:08:25;;;;;;;11.6;5.5;;;;;;;;;;;;;-80
2022/04/14 06:13:24;;;;;;;;;;;;;;;9.1;64.73242;102162.6;;;;-82
2022/04/14 06:18:12;;;;;;;;;;;;;;;9.16;64.49707;102163.3;;;;-81
2022/04/14 06:23:16;;;;;;;;;;;;;;;9.35;64.29102;102164.6;;;;-79
2022/04/14 06:28:12;;;;;;;;;;;;;;;9.79;63.90234;102168;;;;-80
2022/04/14 06:33:12;;;;;;;;;;;;;;;10.13;63.06445;102164.3;;;;-80
2022/04/14 06:38:12;;;;;;;;;;;;;;;10.34;62.67188;102164.8;;;;-80
2022/04/14 06:38:43;;;;;;;10.4;5.7;;;;;;;;;;;;;-80
2022/04/14 06:43:16;;;;;;;;;;;;;;;10.6;62.19727;102164.4;;;;-77
2022/04/14 06:48:16;;;;;;;;;;;;;;;10.95;61.76855;102171.5;;;;-81
2022/04/14 06:53:12;;;;;;;;;;;;;;;11.46;60.94727;102165;;;;-80
2022/04/14 06:58:12;;;;;;;;;;;;;;;11.94;60.12305;102164.6;;;;-80
2022/04/14 07:03:15;;;;;;;;;;;;;;;12.4;59.6709;102169.5;;;;-79
2022/04/14 07:08:12;;;;;;;;;;;;;;;12.84;59.12598;102159.9;;;;-80
2022/04/14 07:08:27;;;;;;;11.3;5.3;;;;;;;;;;;;;-79
2022/04/14 07:13:12;;;;;;;;;;;;;;;13.27;58.68066;102162.2;;;;-80
2022/04/14 07:18:12;;;;;;;;;;;;;;;13.67;58.25195;102162.6;;;;-81
2022/04/14 07:23:16;;;;;;;;;;;;;;;14.06;58.03516;102153.9;;;;-79
2022/04/14 07:28:14;;;;;;;;;;;;;;;14.44;57.70215;102151.2;;;;-80
2022/04/14 07:33:12;;;;;;;;;;;;;;;14.87;57.4209;102154.1;;;;-80
2022/04/14 07:38:13;;;;;;;;;;;;;;;15.27;57.14746;102164.3;;;;-79
2022/04/14 07:38:28;;;;;;;11.3;6;;;;;;;;;;;;;-79
2022/04/14 07:43:12;;;;;;;;;;;;;;;15.67;56.89453;102168.5;;;;-80
2022/04/14 07:48:12;;;;;;;;;;;;;;;16.07;56.90137;102160;;;;-79
2022/04/14 07:53:14;;;;;;;;;;;;;;;16.46;56.65723;102166.9;;;;-80
2022/04/14 07:58:20;;;;;;;;;;;;;;;16.87;56.24609;102167.4;;;;-78
2022/04/14 08:03:13;;;;;;;;;;;;;;;17.31;55.96289;102174.5;;;;-80
2022/04/14 08:08:13;;;;;;;;;;;;;;;17.77;55.64746;102181.8;;;;-79
2022/04/14 08:08:30;;;;;;;10.7;5.5;;;;;;;;;;;;;-79
2022/04/14 08:13:12;;;;;;;;;;;;;;;18.31;55.1123;102174.7;;;;-80
2022/04/14 08:18:13;;;;;;;;;;;;;;;18.74;54.79199;102170.2;;;;-82
2022/04/14 08:23:15;;;;;;;;;;;;;;;19.16;54.16016;102174.2;;;;-81
2022/04/14 08:28:12;;;;;;;;;;;;;;;19.51;53.80566;102168.8;;;;-82
2022/04/14 08:33:13;;;;;;;;;;;;;;;19.95;53.12891;102166.1;;;;-81
2022/04/14 08:38:15;;;;;;;;;;;;;;;20.37;52.4043;102160.4;;;;-81
2022/04/14 08:38:32;;;;;;;8.5;5.1;;;;;;;;;;;;;-81
2022/04/14 08:43:13;;;;;;;;;;;;;;;20.8;51.8252;102157.4;;;;-79
2022/04/14 08:48:12;;;;;;;;;;;;;;;21.21;51.10742;102158.8;;;;-81
2022/04/14 08:53:12;;;;;;;;;;;;;;;21.63;50.37793;102167.9;;;;-80
2022/04/14 08:58:15;;;;;;;;;;;;;;;22.09;49.81055;102168.6;;;;-81
2022/04/14 09:03:13;;;;;;;;;;;;;;;22.5;49.24707;102164.4;;;;-82
2022/04/14 09:08:13;;;;;;;;;;;;;;;22.81;48.76563;102175.2;;;;-82
2022/04/14 09:08:36;;;;;;;8.3;5.1;;;;;;;;;;;;;-80
2022/04/14 09:13:15;;;;;;;;;;;;;;;23.08;48.53027;102176.2;;;;-81
2022/04/14 09:18:12;;;;;;;;;;;;;;;23.33;48.35156;102180.7;;;;-79
2022/04/14 09:23:20;;;;;;;;;;;;;;;23.61;47.93164;102184;;;;-81
2022/04/14 09:28:16;;;;;;;;;;;;;;;23.88;47.43164;102195.8;;;;-80
2022/04/14 09:33:18;;;;;;;;;;;;;;;24.1;47.23535;102196;;;;-81
2022/04/14 09:38:13;;;;;;;;;;;;;;;24.35;47.11133;102198.4;;;;-81
2022/04/14 09:38:51;;;;;;;8.1;5.2;;;;;;;;;;;;;-82
2022/04/14 09:43:12;;;;;;;;;;;;;;;24.65;46.4502;102194.4;;;;-80
2022/04/14 09:48:15;;;;;;;;;;;;;;;24.84;45.92676;102193.6;;;;-82
2022/04/14 09:53:16;;;;;;;;;;;;;;;25.11;46.46289;102206;;;;-81
2022/04/14 09:58:16;;;;;;;;;;;;;;;25.39;45.75195;102206.1;;;;-83
2022/04/14 10:03:16;;;;;;;;;;;;;;;25.56;45.3877;102204.4;;;;-84
2022/04/14 10:08:13;;;;;;;;;;;;;;;25.7;45.85352;102197.4;;;;-80
2022/04/14 10:08:51;;;;;;;7.6;5;;;;;;;;;;;;;-82
2022/04/14 10:13:12;;;;;;;;;;;;;;;25.92;46.7666;102206;;;;-82
2022/04/14 10:18:13;;;;;;;;;;;;;;;26.2;46.77246;102206.5;;;;-82
2022/04/14 10:23:12;;;;;;;;;;;;;;;26.53;46.13477;102206.1;;;;-82
2022/04/14 10:28:12;;;;;;;;;;;;;;;26.76;45.96094;102206.2;;;;-82
2022/04/14 10:33:17;;;;;;;;;;;;;;;26.87;46.04199;102205.5;;;;-83
2022/04/14 10:38:15;;;;;;;;;;;;;;;26.93;46.2334;102206;;;;-84
2022/04/14 10:38:49;;;;;;;7.2;4.8;;;;;;;;;;;;;-82
2022/04/14 10:43:13;;;;;;;;;;;;;;;27.06;46.25781;102196.7;;;;-83
2022/04/14 10:48:25;;;;;;;;;;;;;;;27.26;45.41992;102191.6;;;;-83
2022/04/14 10:53:24;;;;;;;;;;;;;;;27.42;44.92578;102205.4;;;;-81
2022/04/14 10:58:22;;;;;;;;;;;;;;;27.45;45.86816;102207.1;;;;-82
2022/04/14 11:03:17;;;;;;;;;;;;;;;27.55;46.27344;102205.4;;;;-83
2022/04/14 11:08:25;;;;;;;;;;;;;;;27.6;46.13965;102209.1;;;;-83
2022/04/14 11:08:53;;;;;;;6.1;3.7;;;;;;;;;;;;;-83
2022/04/14 11:13:13;;;;;;;;;;;;;;;27.69;46.16016;102210;;;;-80
2022/04/14 11:18:16;;;;;;;;;;;;;;;27.75;45.80566;102215.1;;;;-82
2022/04/14 11:23:16;;;;;;;;;;;;;;;27.84;45.89648;102213.7;;;;-81
2022/04/14 11:28:30;;;;;;;;;;;;;;;28.08;43.80273;102215.4;;;;-85
2022/04/14 11:33:32;;;;;;;;;;;;;;;28.23;42.61816;102217.4;;;;-84
2022/04/14 11:38:13;;;;;;;;;;;;;;;28.27;42.94922;102228.2;;;;-82
2022/04/14 11:38:58;;;;;;;7;4;;;;;;;;;;;;;-83
2022/04/14 11:43:15;;;;;;;;;;;;;;;28.35;41.79102;102231.3;;;;-82
2022/04/14 11:48:13;;;;;;;;;;;;;;;28.32;42.66211;102235.5;;;;-82
2022/04/14 11:53:14;;;;;;;;;;;;;;;28.3;43.59082;102237.4;;;;-79
2022/04/14 11:58:16;;;;;;;;;;;;;;;28.41;43.1709;102240.2;;;;-82
2022/04/14 12:03:34;;;;;;;;;;;;;;;28.56;42.18359;102234;;;;-83
2022/04/14 12:08:17;;;;;;;;;;;;;;;28.61;42.26953;102235.3;;;;-79
2022/04/14 12:09:07;;;;;;;7;4.2;;;;;;;;;;;;;-77
2022/04/14 12:13:15;;;;;;;;;;;;;;;28.65;41.94824;102241;;;;-77
2022/04/14 12:18:13;;;;;;;;;;;;;;;28.68;41.5293;102238.5;;;;-78
2022/04/14 12:23:15;;;;;;;;;;;;;;;28.64;41.61914;102241;;;;-78
2022/04/14 12:28:11;;;;;;;;;;;;;;;28.56;42.04297;102236.9;;;;-70
2022/04/14 12:33:12;;;;;;;;;;;;;;;28.52;42.27344;102243.5;;;;-70
2022/04/14 12:38:19;;;;;;;;;;;;;;;28.62;41.76953;102246.9;;;;-70
2022/04/14 12:39:03;;;;;;;6.6;4.7;;;;;;;;;;;;;-70
2022/04/14 12:43:21;;;;;;;;;;;;;;;28.6;42.54785;102253.5;;;;-70
2022/04/14 12:48:11;;;;;;;;;;;;;;;28.47;42.57227;102262.8;;;;-70
2022/04/14 12:53:13;;;;;;;;;;;;;;;28.4;42.37891;102259.3;;;;-69
2022/04/14 12:58:17;;;;;;;;;;;;;;;28.36;42.05957;102257.9;;;;-70
2022/04/14 13:03:19;;;;;;;;;;;;;;;28.31;42.45117;102256.1;;;;-70
2022/04/14 13:08:12;;;;;;;;;;;;;;;28.25;42.77148;102269.8;;;;-70
2022/04/14 13:09:15;;;;;;;8.5;5.1;;;;;;;;;;;;;-71
2022/04/14 13:13:12;;;;;;;;;;;;;;;28.1;43.00195;102270;;;;-69
2022/04/14 13:18:11;;;;;;;;;;;;;;;27.86;43.26953;102270.9;;;;-69
2022/04/14 13:23:13;;;;;;;;;;;;;;;27.69;43.21973;102271.4;;;;-70
2022/04/14 13:28:12;;;;;;;;;;;;;;;27.58;43.30176;102261;;;;-70
2022/04/14 13:33:11;;;;;;;;;;;;;;;27.53;42.9248;102266.4;;;;-70
2022/04/14 13:38:13;;;;;;;;;;;;;;;27.38;42.51563;102267.7;;;;-69
2022/04/14 13:39:12;;;;;;;7.9;5.3;;;;;;;;;;;;;-68
2022/04/14 13:43:16;;;;;;;;;;;;;;;27.17;43.19336;102267.8;;;;-69
2022/04/14 13:48:12;;;;;;;;;;;;;;;26.95;43.16016;102278;;;;-68
2022/04/14 13:53:13;;;;;;;;;;;;;;;26.72;42.7666;102270.8;;;;-69
2022/04/14 13:58:12;;;;;;;;;;;;;;;26.7;42.76465;102267.6;;;;-69
2022/04/14 14:03:12;;;;;;;;;;;;;;;26.66;41.69336;102263.8;;;;-68
2022/04/14 14:08:12;;;;;;;;;;;;;;;26.58;41.97559;102271.9;;;;-70
2022/04/14 14:09:15;;;;;;;8.7;5.2;;;;;;;;;;;;;-69
2022/04/14 14:13:12;;;;;;;;;;;;;;;26.5;42.13086;102276.3;;;;-68
2022/04/14 14:18:11;;;;;;;;;;;;;;;26.52;42.81836;102271.4;;;;-69
2022/04/14 14:23:11;;;;;;;;;;;;;;;26.62;42.12012;102274.9;;;;-69
2022/04/14 14:28:12;;;;;;;;;;;;;;;26.62;42.03809;102273.4;;;;-69
2022/04/14 14:33:12;;;;;;;;;;;;;;;26.53;41.9707;102277.1;;;;-69
2022/04/14 14:38:11;;;;;;;;;;;;;;;26.38;42.62988;102280.5;;;;-70
2022/04/14 14:39:21;;;;;;;9.6;5.4;;;;;;;;;;;;;-70
2022/04/14 14:43:11;;;;;;;;;;;;;;;26.35;42.52344;102281.7;;;;-70
2022/04/14 14:48:12;;;;;;;;;;;;;;;26.36;41.99023;102276.8;;;;-69
2022/04/14 14:53:12;;;;;;;;;;;;;;;26.37;42.0957;102276.6;;;;-69
2022/04/14 15:03:11;;;;;;;;;;;;;;;26.27;42.02832;102274.1;;;;-68
2022/04/14 15:08:12;;;;;;;;;;;;;;;26.11;42.68555;102283;;;;-68
2022/04/14 15:09:24;;;;;;;6.6;4.1;;;;;;;;;;;;;-69
2022/04/14 15:13:11;;;;;;;;;;;;;;;26.07;41.87012;102283.8;;;;-69
2022/04/14 15:18:11;;;;;;;;;;;;;;;25.96;41.74512;102279.5;;;;-68
2022/04/14 15:23:11;;;;;;;;;;;;;;;25.72;41.60742;102274.5;;;;-69
2022/04/14 15:28:12;;;;;;;;;;;;;;;25.61;41.46875;102276.8;;;;-70
2022/04/14 15:33:12;;;;;;;;;;;;;;;25.49;41.51563;102276.1;;;;-70
2022/04/14 15:38:11;;;;;;;;;;;;;;;25.2;42.28809;102272.2;;;;-69
2022/04/14 15:39:28;;;;;;;7.3;2.7;;;;;;;;;;;;;-69
2022/04/14 15:43:11;;;;;;;;;;;;;;;24.89;42.95215;102276;;;;-69
2022/04/14 15:48:12;;;;;;;;;;;;;;;24.62;43.2832;102278;;;;-70
2022/04/14 15:53:15;;;;;;;;;;;;;;;24.33;43.79883;102285.2;;;;-70
2022/04/14 15:58:11;;;;;;;;;;;;;;;24.06;43.79492;102286.7;;;;-70
2022/04/14 16:03:13;;;;;;;;;;;;;;;23.84;44.07324;102298.1;;;;-70
2022/04/14 16:08:12;;;;;;;;;;;;;;;23.65;44.03223;102303;;;;-70
2022/04/14 16:12:02;;;;;;;4.9;2.5;;;;;;;;;;;;;-69
2022/04/14 16:13:11;;;;;;;;;;;;;;;23.55;43.83789;102304.7;;;;-69
2022/04/14 16:18:11;;;;;;;;;;;;;;;23.43;43.78027;102309.4;;;;-70
2022/04/14 16:23:11;;;;;;;;;;;;;;;23.37;43.77344;102314.9;;;;-69
2022/04/14 16:28:12;;;;;;;;;;;;;;;23.24;43.61133;102325.4;;;;-70
2022/04/14 16:33:11;;;;;;;;;;;;;;;23.06;43.9043;102321;;;;-69
2022/04/14 16:38:11;;;;;;;;;;;;;;;22.82;44.31738;102325.7;;;;-69
2022/04/14 16:39:37;;;;;;;4.2;1.4;;;;;;;;;;;;;-68
2022/04/14 16:43:11;;;;;;;;;;;;;;;22.6;44.68652;102337.3;;;;-69
2022/04/14 16:48:11;;;;;;;;;;;;;;;22.43;44.37305;102338.8;;;;-69
2022/04/14 16:53:11;;;;;;;;;;;;;;;22.22;44.85547;102334.2;;;;-69
2022/04/14 16:58:11;;;;;;;;;;;;;;;21.98;45.34766;102337.8;;;;-69
2022/04/14 17:03:13;;;;;;;;;;;;;;;21.76;45.60156;102338.3;;;;-71
2022/04/14 17:08:12;;;;;;;;;;;;;;;21.54;46.06055;102347.7;;;;-75
2022/04/14 17:09:41;;;;;;;3.6;1.4;;;;;;;;;;;;;-76
2022/04/14 17:13:11;;;;;;;;;;;;;;;21.25;46.32813;102353.7;;;;-77
2022/04/14 17:18:12;;;;;;;;;;;;;;;20.95;46.50293;102355.9;;;;-76
2022/04/14 17:28:13;;;;;;;;;;;;;;;20.4;47.18848;102365.8;;;;-77
2022/04/14 17:33:17;;;;;;;;;;;;;;;20.15;47.43555;102374.3;;;;-76
2022/04/14 17:38:12;;;;;;;;;;;;;;;19.89;47.64746;102371.6;;;;-74
2022/04/14 17:39:46;;;;;;;4.3;1.7;;;;;;;;;;;;;-76
2022/04/14 17:43:12;;;;;;;;;;;;;;;19.64;47.87207;102373.3;;;;-76
2022/04/14 17:48:13;;;;;;;;;;;;;;;19.39;48.04004;102376.2;;;;-76
2022/04/14 17:53:16;;;;;;;;;;;;;;;19.15;48.30957;102374;;;;-76
2022/04/14 17:58:12;;;;;;;;;;;;;;;18.9;48.47559;102384.1;;;;-76
2022/04/14 18:03:16;;;;;;;;;;;;;;;18.66;48.72168;102390;;;;-76
2022/04/14 18:08:13;;;;;;;;;;;;;;;18.38;49.0332;102394.2;;;;-75
2022/04/14 18:09:46;;;;;;;6.6;2.1;;;;;;;;;;;;;-76
2022/04/14 18:13:12;;;;;;;;;;;;;;;18.12;49.27637;102399.9;;;;-74
2022/04/14 18:18:14;;;;;;;;;;;;;;;17.85;49.26855;102407.7;;;;-78
2022/04/14 18:23:14;;;;;;;;;;;;;;;17.58;49.63672;102416.7;;;;-76
2022/04/14 18:28:11;;;;;;;;;;;;;;;17.3;49.68555;102422.4;;;;-77
2022/04/14 18:33:12;;;;;;;;;;;;;;;17.02;50.03809;102425.2;;;;-75
2022/04/14 18:38:13;;;;;;;;;;;;;;;16.74;50.32324;102436.1;;;;-78
2022/04/14 18:39:47;;;;;;;6.4;3.3;;;;;;;;;;;;;-78
2022/04/14 18:43:12;;;;;;;;;;;;;;;16.47;50.6543;102440.2;;;;-76
2022/04/14 18:48:12;;;;;;;;;;;;;;;16.19;51.04102;102445.3;;;;-77
2022/04/14 18:53:11;;;;;;;;;;;;;;;15.93;51.38379;102455.3;;;;-78
2022/04/14 18:58:12;;;;;;;;;;;;;;;15.65;51.9043;102462.9;;;;-75
2022/04/14 19:03:13;;;;;;;;;;;;;;;15.37;52.20996;102471.9;;;;-77
2022/04/14 19:08:14;;;;;;;;;;;;;;;15.11;52.66504;102477.2;;;;-75
2022/04/14 19:09:50;;;;;;;8.4;4.4;;;;;;;;;;;;;-75
2022/04/14 19:13:12;;;;;;;;;;;;;;;14.87;53.06348;102474.8;;;;-77
2022/04/14 19:18:13;;;;;;;;;;;;;;;14.62;53.74316;102476.2;;;;-77
2022/04/14 19:23:11;;;;;;;;;;;;;;;14.39;54.09766;102478.5;;;;-75
2022/04/14 19:28:12;;;;;;;;;;;;;;;14.17;54.72168;102484.3;;;;-74
2022/04/14 19:33:14;;;;;;;;;;;;;;;13.96;54.93262;102483.4;;;;-74
2022/04/14 19:38:13;;;;;;;;;;;;;;;13.76;55.35742;102490.3;;;;-80
2022/04/14 19:39:55;;;;;;;8.8;4.2;;;;;;;;;;;;;-81
2022/04/14 19:43:13;;;;;;;;;;;;;;;13.57;55.7373;102501.2;;;;-81
2022/04/14 19:48:12;;;;;;;;;;;;;;;13.37;55.9248;102501.4;;;;-81
2022/04/14 19:53:12;;;;;;;;;;;;;;;13.18;56.27051;102505.9;;;;-82
2022/04/14 19:58:12;;;;;;;;;;;;;;;13;56.80762;102503.4;;;;-79
2022/04/14 20:03:14;;;;;;;;;;;;;;;12.84;57.01074;102506.4;;;;-80
2022/04/14 20:08:13;;;;;;;;;;;;;;;12.66;57.33398;102506.2;;;;-80
2022/04/14 20:09:53;;;;;;;7.8;4.5;;;;;;;;;;;;;-79
2022/04/14 20:13:12;;;;;;;;;;;;;;;12.53;57.69727;102512.2;;;;-81
2022/04/14 20:18:14;;;;;;;;;;;;;;;12.39;57.8584;102520.8;;;;-81
2022/04/14 20:23:12;;;;;;;;;;;;;;;12.25;58.35449;102529.3;;;;-79
2022/04/14 20:28:12;;;;;;;;;;;;;;;12.11;58.68164;102524.4;;;;-80
2022/04/14 20:33:12;;;;;;;;;;;;;;;11.98;58.83203;102527.6;;;;-80
2022/04/14 20:38:11;;;;;;;;;;;;;;;11.9;58.97754;102535.7;;;;-80
2022/04/14 20:39:55;;;;;;;10.1;5.1;;;;;;;;;;;;;-80
2022/04/14 20:43:14;;;;;;;;;;;;;;;11.78;59.04004;102533.6;;;;-82
2022/04/14 20:48:11;;;;;;;;;;;;;;;11.65;59.21289;102536;;;;-80
2022/04/14 20:53:12;;;;;;;;;;;;;;;11.53;59.41797;102545.3;;;;-81
2022/04/14 20:58:11;;;;;;;;;;;;;;;11.41;59.53613;102548.6;;;;-81
2022/04/14 21:03:12;;;;;;;;;;;;;;;11.32;59.76855;102549.1;;;;-81
2022/04/14 21:08:12;;;;;;;;;;;;;;;11.22;59.75488;102555.3;;;;-81
2022/04/14 21:09:57;;;;;;;10.3;5.4;;;;;;;;;;;;;-80
2022/04/14 21:13:12;;;;;;;;;;;;;;;11.12;60.04395;102556.9;;;;-79
2022/04/14 21:18:13;;;;;;;;;;;;;;;11.01;60.0498;102561.8;;;;-81
2022/04/14 21:23:12;;;;;;;;;;;;;;;10.94;60.18555;102565.4;;;;-81
2022/04/14 21:28:12;;;;;;;;;;;;;;;10.82;60.09082;102567.6;;;;-79
2022/04/14 21:33:17;;;;;;;;;;;;;;;10.71;60.27539;102573.5;;;;-82
2022/04/14 21:38:16;;;;;;;;;;;;;;;10.64;60.51172;102579.3;;;;-83
2022/04/14 21:39:58;;;;;;;12.2;5.8;;;;;;;;;;;;;-80
2022/04/14 21:43:14;;;;;;;;;;;;;;;10.56;60.68848;102576.5;;;;-80
2022/04/14 21:48:16;;;;;;;;;;;;;;;10.47;60.8877;102576.7;;;;-82
2022/04/14 21:53:12;;;;;;;;;;;;;;;10.38;60.85352;102577;;;;-80
2022/04/14 21:58:12;;;;;;;;;;;;;;;10.31;60.84473;102578.8;;;;-81
2022/04/14 22:03:13;;;;;;;;;;;;;;;10.25;60.93555;102582.5;;;;-81
2022/04/14 22:08:13;;;;;;;;;;;;;;;10.17;61.06934;102589.2;;;;-82
2022/04/14 22:09:59;;;;;;;10.6;5.1;;;;;;;;;;;;;-79
2022/04/14 22:13:16;;;;;;;;;;;;;;;10.08;61.14551;102589.7;;;;-79
2022/04/14 22:18:12;;;;;;;;;;;;;;;10.02;61.21484;102588.4;;;;-79
2022/04/14 22:23:13;;;;;;;;;;;;;;;9.97;61.25098;102591.3;;;;-79
2022/04/14 22:28:11;;;;;;;;;;;;;;;9.88;61.40723;102588;;;;-80
2022/04/14 22:33:13;;;;;;;;;;;;;;;9.82;61.35352;102591;;;;-79
2022/04/14 22:38:14;;;;;;;;;;;;;;;9.81;61.5293;102591.1;;;;-80
2022/04/14 22:40:01;;;;;;;8.8;5;;;;;;;;;;;;;-79
2022/04/14 22:43:12;;;;;;;;;;;;;;;9.77;61.33496;102598.9;;;;-80
2022/04/14 22:48:15;;;;;;;;;;;;;;;9.75;61.47656;102599.7;;;;-80
2022/04/14 22:53:12;;;;;;;;;;;;;;;9.74;61.60742;102594.9;;;;-79
2022/04/14 22:58:11;;;;;;;;;;;;;;;9.7;61.54785;102606.2;;;;-81
2022/04/14 23:03:20;;;;;;;;;;;;;;;9.68;61.5459;102607.9;;;;-80
2022/04/14 23:08:12;;;;;;;;;;;;;;;9.62;61.59082;102611.2;;;;-78
2022/04/14 23:10:01;;;;;;;6.3;3.8;;;;;;;;;;;;;-79
2022/04/14 23:13:12;;;;;;;;;;;;;;;9.55;61.5166;102616.4;;;;-80
2022/04/14 23:18:11;;;;;;;;;;;;;;;9.49;61.59473;102620.3;;;;-80
2022/04/14 23:23:11;;;;;;;;;;;;;;;9.43;61.58594;102629.7;;;;-80
2022/04/14 23:28:11;;;;;;;;;;;;;;;9.35;61.58496;102631.5;;;;-82
2022/04/14 23:33:12;;;;;;;;;;;;;;;9.3;61.71289;102630.6;;;;-79
2022/04/14 23:38:16;;;;;;;;;;;;;;;9.27;61.75391;102634.3;;;;-80
2022/04/14 23:40:16;;;;;;;6.4;3.6;;;;;;;;;;;;;-80
2022/04/14 23:43:12;;;;;;;;;;;;;;;9.29;61.82129;102635;;;;-80
2022/04/14 23:48:12;;;;;;;;;;;;;;;9.29;61.93359;102635.3;;;;-80
2022/04/14 23:53:11;;;;;;;;;;;;;;;9.34;61.8291;102638.8;;;;-82
2022/04/14 23:58:16;;;;;;;;;;;;;;;9.37;61.67773;102640.5;;;;-80
